createdAt,value
2023-09-07T00:00:13.468Z,100196.00
2023-09-07T00:02:15.908Z,100196.09
2023-09-07T00:04:18.533Z,100188.13
2023-09-07T00:06:21.255Z,100189.25
2023-09-07T00:08:23.670Z,100184.53
2023-09-07T00:10:27.469Z,100183.75
2023-09-07T00:12:29.762Z,100181.28
2023-09-07T00:14:32.294Z,100181.38
2023-09-07T00:16:39.614Z,100179.63
2023-09-07T00:18:42.132Z,100172.41
2023-09-07T00:20:44.673Z,100174.59
2023-09-07T00:22:47.116Z,100177.34
2023-09-07T00:24:49.485Z,100173.13
2023-09-07T00:26:51.843Z,100174.66
2023-09-07T00:28:54.499Z,100172.25
2023-09-07T00:30:56.933Z,100184.69
2023-09-07T00:32:59.370Z,100178.53
2023-09-07T00:35:02.050Z,100180.84
2023-09-07T00:37:04.808Z,100184.84
2023-09-07T00:39:07.212Z,100186.28
2023-09-07T00:41:09.720Z,100197.84
2023-09-07T00:43:12.606Z,100187.56
2023-09-07T00:45:15.310Z,100188.22
2023-09-07T00:47:18.462Z,100183.50
2023-09-07T00:49:21.240Z,100181.53
2023-09-07T00:51:24.074Z,100182.63
2023-09-07T00:53:28.393Z,100189.97
2023-09-07T00:55:34.494Z,100181.66
2023-09-07T00:57:38.380Z,100180.97
2023-09-07T00:59:40.984Z,100177.38
2023-09-07T01:01:44.670Z,100183.94
2023-09-07T01:03:47.617Z,100185.06
2023-09-07T01:05:53.212Z,100186.28
2023-09-07T01:08:28.176Z,100190.13
2023-09-07T01:10:30.690Z,100193.19
2023-09-07T01:12:33.382Z,100187.72
2023-09-07T01:14:35.795Z,100186.94
2023-09-07T01:16:41.811Z,100185.22
2023-09-07T01:18:44.679Z,100187.19
2023-09-07T01:20:50.154Z,100187.75
2023-09-07T01:22:52.976Z,100189.66
2023-09-07T01:24:57.196Z,100190.78
2023-09-07T01:27:00.718Z,100193.06
2023-09-07T01:29:03.514Z,100191.41
2023-09-07T01:31:07.532Z,100196.34
2023-09-07T01:33:10.270Z,100190.25
2023-09-07T01:35:14.553Z,100195.06
2023-09-07T01:37:17.189Z,100190.03
2023-09-07T01:39:19.565Z,100196.34
2023-09-07T01:41:22.255Z,100189.91
2023-09-07T01:43:24.709Z,100194.63
2023-09-07T01:45:27.601Z,100196.78
2023-09-07T01:47:30.238Z,100202.38
2023-09-07T01:49:32.994Z,100197.09
2023-09-07T01:51:36.227Z,100196.66
2023-09-07T01:53:38.691Z,100191.63
2023-09-07T01:55:41.107Z,100199.06
2023-09-07T01:57:43.919Z,100197.06
2023-09-07T01:59:46.388Z,100204.00
2023-09-07T02:01:48.964Z,100195.59
2023-09-07T02:03:51.435Z,100199.94
2023-09-07T02:05:55.282Z,100188.03
2023-09-07T02:07:57.819Z,100193.41
2023-09-07T02:10:00.458Z,100198.66
2023-09-07T02:12:05.459Z,100185.09
2023-09-07T02:14:08.207Z,100188.72
2023-09-07T02:16:10.925Z,100186.00
2023-09-07T02:18:13.491Z,100189.81
2023-09-07T02:20:16.217Z,100188.16
2023-09-07T02:22:18.639Z,100180.94
2023-09-07T02:24:21.208Z,100182.16
2023-09-07T02:26:23.868Z,100180.50
2023-09-07T02:28:26.944Z,100183.25
2023-09-07T02:30:30.133Z,100187.94
2023-09-07T02:32:35.135Z,100195.34
2023-09-07T02:34:37.765Z,100192.69
2023-09-07T02:36:40.477Z,100186.38
2023-09-07T02:38:42.938Z,100188.41
2023-09-07T02:40:45.726Z,100193.88
2023-09-07T02:42:49.312Z,100191.38
2023-09-07T02:44:51.805Z,100198.66
2023-09-07T02:46:54.208Z,100200.66
2023-09-07T02:48:59.061Z,100198.88
2023-09-07T02:51:02.510Z,100204.63
2023-09-07T02:53:05.841Z,100203.78
2023-09-07T02:55:09.216Z,100200.28
2023-09-07T02:57:12.409Z,100208.78
2023-09-07T02:59:15.343Z,100211.72
2023-09-07T03:01:22.303Z,100208.97
2023-09-07T03:03:26.253Z,100214.56
2023-09-07T03:05:29.785Z,100210.06
2023-09-07T03:07:35.476Z,100210.19
2023-09-07T03:09:39.196Z,100218.38
2023-09-07T03:11:42.283Z,100214.88
2023-09-07T03:13:45.473Z,100213.31
2023-09-07T03:15:48.761Z,100217.81
2023-09-07T03:17:51.513Z,100211.56
2023-09-07T03:19:53.918Z,100215.16
2023-09-07T03:21:56.674Z,100213.44
2023-09-07T03:23:59.473Z,100213.53
2023-09-07T03:26:02.566Z,100210.91
2023-09-07T03:28:05.936Z,100211.78
2023-09-07T03:30:11.471Z,100218.19
2023-09-07T03:32:14.788Z,100222.91
2023-09-07T03:34:17.464Z,100221.25
2023-09-07T03:36:19.986Z,100226.50
2023-09-07T03:38:22.927Z,100223.78
2023-09-07T03:40:25.482Z,100221.91
2023-09-07T03:42:28.038Z,100227.38
2023-09-07T03:44:30.591Z,100220.06
2023-09-07T03:46:33.144Z,100224.72
2023-09-07T03:48:37.552Z,100223.88
2023-09-07T03:50:41.635Z,100220.47
2023-09-07T03:52:44.311Z,100228.47
2023-09-07T03:54:47.027Z,100223.16
2023-09-07T03:56:49.414Z,100227.72
2023-09-07T03:58:51.820Z,100238.44
2023-09-07T04:00:54.466Z,100232.78
2023-09-07T04:02:57.867Z,100227.53
2023-09-07T04:05:03.017Z,100235.72
2023-09-07T04:07:07.155Z,100231.22
2023-09-07T04:09:09.506Z,100234.84
2023-09-07T04:11:11.905Z,100234.94
2023-09-07T04:13:14.325Z,100236.88
2023-09-07T04:15:17.128Z,100236.66
2023-09-07T04:17:20.180Z,100240.88
2023-09-07T04:19:22.714Z,100246.44
2023-09-07T04:21:25.269Z,100238.38
2023-09-07T04:23:28.217Z,100238.25
2023-09-07T04:25:30.783Z,100240.97
2023-09-07T04:27:34.883Z,100239.22
2023-09-07T04:29:39.119Z,100237.00
2023-09-07T04:31:41.625Z,100242.66
2023-09-07T04:33:44.207Z,100243.84
2023-09-07T04:35:46.769Z,100235.34
2023-09-07T04:37:49.237Z,100247.91
2023-09-07T04:39:55.153Z,100240.09
2023-09-07T04:41:59.250Z,100239.16
2023-09-07T04:44:01.809Z,100236.03
2023-09-07T04:46:04.846Z,100240.22
2023-09-07T04:48:07.509Z,100236.09
2023-09-07T04:50:10.516Z,100239.09
2023-09-07T04:52:13.029Z,100242.09
2023-09-07T04:54:17.540Z,100245.19
2023-09-07T04:56:20.740Z,100249.16
2023-09-07T04:58:23.160Z,100242.84
2023-09-07T05:00:25.954Z,100241.31
2023-09-07T05:02:28.424Z,100241.13
2023-09-07T05:04:31.990Z,100241.78
2023-09-07T05:06:38.277Z,100246.34
2023-09-07T05:08:42.120Z,100240.00
2023-09-07T05:10:44.648Z,100244.16
2023-09-07T05:12:48.405Z,100248.09
2023-09-07T05:14:50.828Z,100254.91
2023-09-07T05:16:54.212Z,100248.25
2023-09-07T05:18:56.823Z,100257.13
2023-09-07T05:20:59.807Z,100262.47
2023-09-07T05:23:02.595Z,100260.28
2023-09-07T05:25:05.595Z,100257.00
2023-09-07T05:27:08.170Z,100260.41
2023-09-07T05:29:13.013Z,100262.69
2023-09-07T05:31:16.975Z,100258.56
2023-09-07T05:33:20.339Z,100261.63
2023-09-07T05:35:22.954Z,100264.03
2023-09-07T05:37:25.577Z,100269.59
2023-09-07T05:39:28.084Z,100264.31
2023-09-07T05:41:30.636Z,100263.47
2023-09-07T05:43:33.070Z,100273.59
2023-09-07T05:45:38.150Z,100271.94
2023-09-07T05:47:42.043Z,100272.81
2023-09-07T05:49:44.635Z,100269.16
2023-09-07T05:51:47.154Z,100270.16
2023-09-07T05:53:49.828Z,100266.00
2023-09-07T05:55:52.579Z,100278.66
2023-09-07T05:57:58.846Z,100275.22
2023-09-07T06:00:04.148Z,100271.44
2023-09-07T06:02:15.793Z,100281.41
2023-09-07T06:04:18.454Z,100280.34
2023-09-07T06:06:21.152Z,100286.03
2023-09-07T06:08:23.920Z,100284.66
2023-09-07T06:10:26.459Z,100281.69
2023-09-07T06:12:28.929Z,100277.03
2023-09-07T06:14:31.450Z,100287.78
2023-09-07T06:16:34.121Z,100282.97
2023-09-07T06:18:36.881Z,100289.09
2023-09-07T06:20:39.454Z,100294.56
2023-09-07T06:22:43.041Z,100288.94
2023-09-07T06:24:45.610Z,100286.09
2023-09-07T06:26:49.726Z,100286.94
2023-09-07T06:28:52.546Z,100284.38
2023-09-07T06:30:55.082Z,100287.75
2023-09-07T06:32:58.743Z,100288.09
2023-09-07T06:35:02.464Z,100287.72
2023-09-07T06:37:05.910Z,100288.44
2023-09-07T06:39:08.432Z,100288.91
2023-09-07T06:41:10.953Z,100290.16
2023-09-07T06:43:14.250Z,100285.78
2023-09-07T06:45:18.508Z,100285.78
2023-09-07T06:47:20.989Z,100291.31
2023-09-07T06:49:24.041Z,100298.03
2023-09-07T06:51:26.562Z,100298.34
2023-09-07T06:53:44.471Z,100290.41
2023-09-07T06:56:01.944Z,100288.88
2023-09-07T06:58:05.372Z,100293.94
2023-09-07T07:00:08.802Z,100299.09
2023-09-07T07:02:12.852Z,100299.03
2023-09-07T07:04:15.468Z,100297.19
2023-09-07T07:06:18.050Z,100296.50
2023-09-07T07:08:20.763Z,100298.56
2023-09-07T07:10:23.247Z,100299.78
2023-09-07T07:12:26.256Z,100290.72
2023-09-07T07:14:28.790Z,100293.66
2023-09-07T07:16:31.754Z,100294.53
2023-09-07T07:18:34.534Z,100298.19
2023-09-07T07:20:41.408Z,100298.81
2023-09-07T07:22:44.483Z,100293.03
2023-09-07T07:24:49.923Z,100299.13
2023-09-07T07:26:56.004Z,100291.44
2023-09-07T07:28:58.431Z,100285.13
2023-09-07T07:31:10.496Z,100287.28
2023-09-07T07:33:14.452Z,100293.94
2023-09-07T07:35:17.291Z,100286.97
2023-09-07T07:37:19.654Z,100283.34
2023-09-07T07:39:22.195Z,100282.50
2023-09-07T07:41:24.830Z,100283.94
2023-09-07T07:43:27.683Z,100294.25
2023-09-07T07:45:30.359Z,100290.16
2023-09-07T07:47:33.667Z,100301.00
2023-09-07T07:49:37.455Z,100294.28
2023-09-07T07:51:40.430Z,100289.47
2023-09-07T07:53:43.208Z,100292.50
2023-09-07T07:55:47.709Z,100296.81
2023-09-07T07:57:53.552Z,100290.34
2023-09-07T07:59:57.744Z,100290.63
2023-09-07T08:02:01.803Z,100291.50
2023-09-07T08:04:05.102Z,100292.31
2023-09-07T08:06:08.991Z,100303.44
2023-09-07T08:08:11.527Z,100296.41
2023-09-07T08:10:14.223Z,100298.19
2023-09-07T08:12:16.886Z,100301.47
2023-09-07T08:14:19.501Z,100302.09
2023-09-07T08:16:22.028Z,100305.72
2023-09-07T08:18:25.862Z,100298.78
2023-09-07T08:20:29.065Z,100293.81
2023-09-07T08:22:33.446Z,100284.75
2023-09-07T08:24:35.879Z,100288.44
2023-09-07T08:26:40.629Z,100295.09
2023-09-07T08:28:47.885Z,100294.69
2023-09-07T08:30:54.939Z,100287.50
2023-09-07T08:32:57.626Z,100284.97
2023-09-07T08:35:02.437Z,100289.22
2023-09-07T08:37:06.829Z,100284.44
2023-09-07T08:39:11.758Z,100283.78
2023-09-07T08:41:15.414Z,100288.47
2023-09-07T08:43:20.459Z,100285.59
2023-09-07T08:45:27.505Z,100284.47
2023-09-07T08:47:32.992Z,100277.41
2023-09-07T08:49:35.564Z,100281.59
2023-09-07T08:51:38.989Z,100278.63
2023-09-07T08:53:42.571Z,100277.78
2023-09-07T08:55:45.472Z,100272.28
2023-09-07T08:57:48.254Z,100271.06
2023-09-07T08:59:50.992Z,100266.25
2023-09-07T09:01:58.188Z,100271.13
2023-09-07T09:04:01.021Z,100267.19
2023-09-07T09:06:05.705Z,100268.06
2023-09-07T09:08:11.332Z,100268.84
2023-09-07T09:10:14.396Z,100265.56
2023-09-07T09:12:17.112Z,100272.31
2023-09-07T09:14:26.019Z,100271.97
2023-09-07T09:16:28.534Z,100266.28
2023-09-07T09:18:31.637Z,100261.09
2023-09-07T09:20:34.519Z,100258.34
2023-09-07T09:22:37.436Z,100260.78
2023-09-07T09:24:40.113Z,100253.34
2023-09-07T09:26:42.713Z,100256.16
2023-09-07T09:28:49.172Z,100247.13
2023-09-07T09:30:52.224Z,100245.25
2023-09-07T09:32:55.465Z,100247.50
2023-09-07T09:34:58.720Z,100245.41
2023-09-07T09:37:01.614Z,100249.56
2023-09-07T09:39:07.180Z,100245.75
2023-09-07T09:41:11.116Z,100240.53
2023-09-07T09:43:14.557Z,100240.16
2023-09-07T09:45:17.390Z,100238.78
2023-09-07T09:47:21.595Z,100244.00
2023-09-07T09:49:24.795Z,100233.06
2023-09-07T09:51:29.113Z,100239.66
2023-09-07T09:53:33.008Z,100236.16
2023-09-07T09:55:36.303Z,100242.25
2023-09-07T09:57:38.916Z,100232.81
2023-09-07T09:59:41.408Z,100241.13
2023-09-07T10:01:48.692Z,100234.00
2023-09-07T10:03:53.077Z,100232.22
2023-09-07T10:05:55.869Z,100236.91
2023-09-07T10:08:06.894Z,100245.41
2023-09-07T10:10:12.535Z,100242.63
2023-09-07T10:12:17.411Z,100236.38
2023-09-07T10:14:20.758Z,100233.44
2023-09-07T10:16:23.295Z,100236.56
2023-09-07T10:18:36.368Z,100241.94
2023-09-07T10:20:54.422Z,100238.78
2023-09-07T10:23:06.279Z,100238.94
2023-09-07T10:25:20.491Z,100242.03
2023-09-07T10:27:22.850Z,100227.25
2023-09-07T10:29:27.243Z,100235.56
2023-09-07T10:31:44.218Z,100234.72
2023-09-07T10:33:54.368Z,100234.19
2023-09-07T10:35:57.987Z,100230.72
2023-09-07T10:38:02.516Z,100230.72
2023-09-07T10:40:07.100Z,100230.34
2023-09-07T10:42:09.497Z,100226.81
2023-09-07T10:44:12.310Z,100214.78
2023-09-07T10:46:14.953Z,100219.41
2023-09-07T10:48:18.866Z,100216.31
2023-09-07T10:50:21.564Z,100209.69
2023-09-07T10:52:24.138Z,100213.00
2023-09-07T10:54:27.502Z,100217.88
2023-09-07T10:56:30.076Z,100208.16
2023-09-07T10:58:40.046Z,100218.22
2023-09-07T11:00:42.560Z,100214.72
2023-09-07T11:02:45.404Z,100206.84
2023-09-07T11:04:48.018Z,100200.56
2023-09-07T11:06:51.589Z,100204.50
2023-09-07T11:08:54.165Z,100207.09
2023-09-07T11:10:56.670Z,100205.47
2023-09-07T11:13:02.852Z,100199.84
2023-09-07T11:15:06.024Z,100201.88
2023-09-07T11:17:08.616Z,100204.28
2023-09-07T11:19:11.394Z,100202.19
2023-09-07T11:21:13.922Z,100197.69
2023-09-07T11:23:16.534Z,100199.78
2023-09-07T11:25:18.952Z,100199.94
2023-09-07T11:27:23.411Z,100187.84
2023-09-07T11:29:26.666Z,100197.69
2023-09-07T11:31:29.305Z,100192.75
2023-09-07T11:33:35.742Z,100193.59
2023-09-07T11:35:38.297Z,100198.97
2023-09-07T11:37:41.854Z,100186.09
2023-09-07T11:39:44.809Z,100190.44
2023-09-07T11:41:47.456Z,100184.88
2023-09-07T11:43:49.805Z,100188.88
2023-09-07T11:45:52.362Z,100182.84
2023-09-07T11:47:54.977Z,100172.97
2023-09-07T11:49:57.471Z,100179.75
2023-09-07T11:52:00.356Z,100182.31
2023-09-07T11:54:06.537Z,100174.13
2023-09-07T11:56:09.390Z,100174.88
2023-09-07T11:58:11.843Z,100176.03
2023-09-07T12:00:16.077Z,100171.16
2023-09-07T12:02:19.102Z,100171.25
2023-09-07T12:04:21.699Z,100171.34
2023-09-07T12:06:25.272Z,100167.63
2023-09-07T12:08:27.767Z,100176.63
2023-09-07T12:10:30.278Z,100166.44
2023-09-07T12:12:32.719Z,100164.72
2023-09-07T12:14:35.199Z,100166.91
2023-09-07T12:16:37.848Z,100165.69
2023-09-07T12:18:40.492Z,100163.75
2023-09-07T12:20:44.552Z,100163.28
2023-09-07T12:22:47.076Z,100158.94
2023-09-07T12:25:02.274Z,100162.97
2023-09-07T12:27:12.957Z,100157.41
2023-09-07T12:29:15.482Z,100156.16
2023-09-07T12:31:18.225Z,100156.25
2023-09-07T12:33:20.637Z,100158.56
2023-09-07T12:35:23.233Z,100156.25
2023-09-07T12:37:26.197Z,100157.78
2023-09-07T12:39:28.617Z,100153.41
2023-09-07T12:41:32.231Z,100151.94
2023-09-07T12:43:35.407Z,100157.81
2023-09-07T12:45:38.266Z,100146.78
2023-09-07T12:47:41.485Z,100152.34
2023-09-07T12:49:44.070Z,100153.88
2023-09-07T12:51:49.461Z,100156.94
2023-09-07T12:53:52.697Z,100147.16
2023-09-07T12:55:55.533Z,100145.03
2023-09-07T12:57:58.135Z,100139.66
2023-09-07T13:00:01.081Z,100138.53
2023-09-07T13:02:03.934Z,100131.31
2023-09-07T13:04:06.610Z,100134.97
2023-09-07T13:06:08.956Z,100138.88
2023-09-07T13:08:12.055Z,100137.47
2023-09-07T13:10:14.428Z,100128.25
2023-09-07T13:12:17.098Z,100134.66
2023-09-07T13:14:19.497Z,100136.09
2023-09-07T13:16:21.907Z,100122.38
2023-09-07T13:18:24.756Z,100134.38
2023-09-07T13:20:28.147Z,100130.75
2023-09-07T13:22:31.025Z,100116.44
2023-09-07T13:24:33.483Z,100124.28
2023-09-07T13:26:35.939Z,100120.34
2023-09-07T13:28:38.489Z,100123.81
2023-09-07T13:30:40.997Z,100119.81
2023-09-07T13:32:43.380Z,100117.56
2023-09-07T13:34:45.720Z,100112.50
2023-09-07T13:36:48.244Z,100111.44
2023-09-07T13:38:52.902Z,100105.69
2023-09-07T13:40:55.872Z,100104.78
2023-09-07T13:42:58.556Z,100106.44
2023-09-07T13:45:00.945Z,100105.56
2023-09-07T13:47:03.824Z,100104.22
2023-09-07T13:49:06.376Z,100112.28
2023-09-07T13:51:08.964Z,100107.22
2023-09-07T13:53:11.474Z,100103.97
2023-09-07T13:55:14.321Z,100099.44
2023-09-07T13:57:16.823Z,100093.25
2023-09-07T13:59:19.091Z,100099.00
2023-09-07T14:01:22.785Z,100096.69
2023-09-07T14:03:25.170Z,100096.44
2023-09-07T14:05:27.586Z,100106.78
2023-09-07T14:07:29.968Z,100097.22
2023-09-07T14:09:32.437Z,100098.75
2023-09-07T14:11:34.979Z,100095.50
2023-09-07T14:13:37.573Z,100094.03
2023-09-07T14:15:40.029Z,100093.88
2023-09-07T14:17:42.572Z,100100.28
2023-09-07T14:19:46.849Z,100097.69
2023-09-07T14:21:49.334Z,100094.25
2023-09-07T14:23:51.615Z,100093.06
2023-09-07T14:25:54.845Z,100093.97
2023-09-07T14:27:57.288Z,100096.09
2023-09-07T14:29:59.760Z,100084.66
2023-09-07T14:32:02.298Z,100094.25
2023-09-07T14:34:04.802Z,100085.91
2023-09-07T14:36:08.333Z,100086.63
2023-09-07T14:38:10.868Z,100084.72
2023-09-07T14:40:14.937Z,100087.88
2023-09-07T14:42:18.524Z,100082.50
2023-09-07T14:44:21.738Z,100080.22
2023-09-07T14:46:26.209Z,100078.19
2023-09-07T14:48:28.703Z,100081.31
2023-09-07T14:50:31.062Z,100077.00
2023-09-07T14:52:38.489Z,100083.78
2023-09-07T14:54:42.649Z,100087.88
2023-09-07T14:56:45.179Z,100080.91
2023-09-07T14:58:47.809Z,100093.25
2023-09-07T15:00:50.267Z,100085.59
2023-09-07T15:02:52.760Z,100096.19
2023-09-07T15:04:55.156Z,100089.13
2023-09-07T15:06:57.668Z,100094.19
2023-09-07T15:09:00.040Z,100090.72
2023-09-07T15:11:02.512Z,100096.81
2023-09-07T15:13:05.220Z,100090.78
2023-09-07T15:15:08.570Z,100088.53
2023-09-07T15:17:11.091Z,100091.69
2023-09-07T15:19:13.457Z,100095.00
2023-09-07T15:21:15.814Z,100088.28
2023-09-07T15:23:18.255Z,100088.63
2023-09-07T15:25:20.599Z,100094.53
2023-09-07T15:27:23.063Z,100092.81
2023-09-07T15:29:25.926Z,100090.94
2023-09-07T15:31:28.396Z,100091.81
2023-09-07T15:33:31.548Z,100092.16
2023-09-07T15:35:34.104Z,100095.28
2023-09-07T15:37:36.932Z,100096.34
2023-09-07T15:39:39.364Z,100098.09
2023-09-07T15:41:41.846Z,100097.22
2023-09-07T15:43:45.007Z,100092.22
2023-09-07T15:45:47.624Z,100095.00
2023-09-07T15:47:50.542Z,100095.66
2023-09-07T15:49:53.929Z,100102.97
2023-09-07T15:51:56.319Z,100103.50
2023-09-07T15:53:58.899Z,100106.28
2023-09-07T15:56:02.431Z,100101.97
2023-09-07T15:58:05.058Z,100101.97
2023-09-07T16:00:08.620Z,100098.84
2023-09-07T16:02:14.879Z,100099.56
2023-09-07T16:04:17.579Z,100094.69
2023-09-07T16:06:20.204Z,100101.66
2023-09-07T16:08:23.060Z,100102.19
2023-09-07T16:10:28.603Z,100098.34
2023-09-07T16:12:31.462Z,100101.66
2023-09-07T16:14:33.981Z,100105.66
2023-09-07T16:16:36.389Z,100104.09
2023-09-07T16:18:38.825Z,100106.34
2023-09-07T16:20:41.351Z,100104.44
2023-09-07T16:22:43.786Z,100104.63
2023-09-07T16:24:46.155Z,100110.34
2023-09-07T16:26:48.629Z,100105.31
2023-09-07T16:28:50.917Z,100112.41
2023-09-07T16:30:53.499Z,100112.75
2023-09-07T16:32:56.171Z,100118.66
2023-09-07T16:34:58.614Z,100114.84
2023-09-07T16:37:01.015Z,100113.09
2023-09-07T16:39:03.582Z,100110.53
2023-09-07T16:41:07.435Z,100111.75
2023-09-07T16:43:09.868Z,100117.44
2023-09-07T16:45:12.209Z,100113.13
2023-09-07T16:47:14.595Z,100122.66
2023-09-07T16:49:17.950Z,100112.41
2023-09-07T16:51:20.483Z,100120.75
2023-09-07T16:53:23.077Z,100120.75
2023-09-07T16:55:25.780Z,100115.03
2023-09-07T16:57:33.413Z,100117.47
2023-09-07T17:01:41.388Z,100124.69
2023-09-07T17:03:44.038Z,100122.94
2023-09-07T17:05:46.733Z,100131.78
2023-09-07T17:07:49.167Z,100125.53
2023-09-07T17:09:52.223Z,100127.25
2023-09-07T17:11:54.565Z,100128.97
2023-09-07T17:14:02.448Z,100128.44
2023-09-07T17:16:05.541Z,100124.97
2023-09-07T17:18:07.974Z,100121.13
2023-09-07T17:20:10.829Z,100132.22
2023-09-07T17:22:14.873Z,100132.75
2023-09-07T17:24:17.251Z,100133.06
2023-09-07T17:26:19.772Z,100138.78
2023-09-07T17:28:22.247Z,100138.41
2023-09-07T17:30:25.945Z,100134.69
2023-09-07T17:32:29.814Z,100136.59
2023-09-07T17:34:35.977Z,100140.22
2023-09-07T17:36:38.247Z,100135.16
2023-09-07T17:38:40.967Z,100140.19
2023-09-07T17:40:43.320Z,100149.16
2023-09-07T17:42:45.820Z,100142.91
2023-09-07T17:44:48.139Z,100144.22
2023-09-07T17:46:50.793Z,100145.09
2023-09-07T17:48:53.405Z,100145.44
2023-09-07T17:50:56.117Z,100153.38
2023-09-07T17:52:58.568Z,100146.13
2023-09-07T17:55:01.010Z,100144.19
2023-09-07T17:57:03.569Z,100145.38
2023-09-07T17:59:06.058Z,100148.47
2023-09-07T18:01:13.696Z,100147.50
2023-09-07T18:03:16.283Z,100150.47
2023-09-07T18:05:22.499Z,100154.91
2023-09-07T18:07:25.595Z,100148.31
2023-09-07T18:09:28.009Z,100151.75
2023-09-07T18:11:30.495Z,100144.31
2023-09-07T18:13:33.145Z,100153.97
2023-09-07T18:15:35.586Z,100151.50
2023-09-07T18:17:41.264Z,100152.88
2023-09-07T18:19:46.040Z,100153.38
2023-09-07T18:21:48.417Z,100158.19
2023-09-07T18:23:50.847Z,100153.63
2023-09-07T18:25:53.231Z,100145.56
2023-09-07T18:27:55.624Z,100160.06
2023-09-07T18:30:01.710Z,100148.69
2023-09-07T18:32:04.693Z,100151.72
2023-09-07T18:34:08.236Z,100157.25
2023-09-07T18:36:11.705Z,100155.19
2023-09-07T18:38:14.351Z,100151.47
2023-09-07T18:40:16.772Z,100155.59
2023-09-07T18:42:19.321Z,100151.84
2023-09-07T18:44:21.712Z,100153.34
2023-09-07T18:46:25.127Z,100156.50
2023-09-07T18:48:27.580Z,100158.44
2023-09-07T18:50:30.005Z,100160.50
2023-09-07T18:52:34.912Z,100158.81
2023-09-07T18:54:37.551Z,100163.47
2023-09-07T18:56:40.788Z,100161.47
2023-09-07T18:58:43.328Z,100159.16
2023-09-07T19:00:48.626Z,100164.56
2023-09-07T19:02:51.551Z,100158.19
2023-09-07T19:04:54.152Z,100152.53
2023-09-07T19:06:56.882Z,100154.47
2023-09-07T19:09:00.253Z,100152.88
2023-09-07T19:11:03.100Z,100147.66
2023-09-07T19:13:05.864Z,100149.53
2023-09-07T19:15:08.682Z,100150.13
2023-09-07T19:17:12.103Z,100143.56
2023-09-07T19:19:14.618Z,100152.34
2023-09-07T19:21:24.660Z,100154.38
2023-09-07T19:23:27.367Z,100150.16
2023-09-07T19:25:31.955Z,100150.03
2023-09-07T19:27:35.673Z,100152.78
2023-09-07T19:29:41.329Z,100155.00
2023-09-07T19:31:43.987Z,100153.13
2023-09-07T19:33:50.759Z,100148.03
2023-09-07T19:35:53.131Z,100153.81
2023-09-07T19:37:55.542Z,100152.50
2023-09-07T19:39:58.048Z,100151.94
2023-09-07T19:42:00.457Z,100151.78
2023-09-07T19:44:03.693Z,100153.81
2023-09-07T19:46:06.195Z,100152.09
2023-09-07T19:48:08.798Z,100146.44
2023-09-07T19:50:11.948Z,100152.09
2023-09-07T19:52:14.371Z,100152.38
2023-09-07T19:54:16.880Z,100155.28
2023-09-07T19:56:25.294Z,100158.31
2023-09-07T19:58:27.873Z,100154.53
2023-09-07T20:00:30.281Z,100152.09
2023-09-07T20:02:32.838Z,100152.38
2023-09-07T20:04:35.309Z,100151.81
2023-09-07T20:06:37.803Z,100150.78
2023-09-07T20:08:41.397Z,100149.16
2023-09-07T20:10:44.391Z,100149.63
2023-09-07T20:12:47.113Z,100154.38
2023-09-07T20:14:50.255Z,100149.69
2023-09-07T20:16:52.699Z,100156.31
2023-09-07T20:18:55.378Z,100146.59
2023-09-07T20:20:57.754Z,100147.63
2023-09-07T20:23:01.316Z,100151.94
2023-09-07T20:25:04.796Z,100147.47
2023-09-07T20:27:07.381Z,100146.72
2023-09-07T20:29:10.159Z,100156.88
2023-09-07T20:31:12.794Z,100142.81
2023-09-07T20:33:16.200Z,100143.69
2023-09-07T20:35:19.617Z,100140.19
2023-09-07T20:37:22.085Z,100149.06
2023-09-07T20:39:24.966Z,100147.16
2023-09-07T20:41:27.768Z,100150.78
2023-09-07T20:43:30.530Z,100152.78
2023-09-07T20:45:33.083Z,100148.44
2023-09-07T20:47:35.648Z,100148.28
2023-09-07T20:49:38.561Z,100151.16
2023-09-07T20:51:41.705Z,100153.78
2023-09-07T20:53:44.124Z,100155.38
2023-09-07T20:55:46.531Z,100151.47
2023-09-07T20:57:50.283Z,100158.00
2023-09-07T20:59:54.191Z,100150.91
2023-09-07T21:01:56.571Z,100148.84
2023-09-07T21:03:59.207Z,100149.88
2023-09-07T21:06:01.909Z,100151.78
2023-09-07T21:08:07.549Z,100147.13
2023-09-07T21:10:12.280Z,100156.25
2023-09-07T21:12:14.633Z,100145.06
2023-09-07T21:14:17.200Z,100148.97
2023-09-07T21:16:19.559Z,100157.19
2023-09-07T21:18:22.059Z,100151.41
2023-09-07T21:20:24.560Z,100155.75
2023-09-07T21:22:29.928Z,100148.66
2023-09-07T21:24:32.367Z,100151.84
2023-09-07T21:26:34.758Z,100146.59
2023-09-07T21:28:37.165Z,100149.78
2023-09-07T21:30:39.710Z,100153.44
2023-09-07T21:32:42.115Z,100159.53
2023-09-07T21:34:44.705Z,100155.13
2023-09-07T21:36:47.244Z,100164.19
2023-09-07T21:38:49.793Z,100153.75
2023-09-07T21:40:52.878Z,100157.31
2023-09-07T21:42:56.576Z,100153.44
2023-09-07T21:45:00.928Z,100164.78
2023-09-07T21:47:03.453Z,100160.84
2023-09-07T21:49:05.969Z,100152.47
2023-09-07T21:51:08.804Z,100153.72
2023-09-07T21:53:11.587Z,100155.63
2023-09-07T21:55:14.181Z,100154.13
2023-09-07T21:57:18.228Z,100152.28
2023-09-07T21:59:20.681Z,100153.88
2023-09-07T22:01:23.293Z,100154.34
2023-09-07T22:03:25.690Z,100154.41
2023-09-07T22:05:28.940Z,100152.50
2023-09-07T22:07:31.393Z,100150.88
2023-09-07T22:09:33.830Z,100153.00
2023-09-07T22:11:36.266Z,100159.31
2023-09-07T22:13:38.677Z,100162.31
2023-09-07T22:15:41.043Z,100157.94
2023-09-07T22:17:44.653Z,100157.97
2023-09-07T22:19:47.051Z,100163.69
2023-09-07T22:21:49.517Z,100166.06
2023-09-07T22:23:52.213Z,100159.31
2023-09-07T22:25:54.639Z,100156.44
2023-09-07T22:27:57.088Z,100157.31
2023-09-07T22:29:59.510Z,100163.03
2023-09-07T22:32:02.700Z,100155.19
2023-09-07T22:34:05.047Z,100162.69
2023-09-07T22:36:07.612Z,100166.75
2023-09-07T22:38:09.912Z,100166.50
2023-09-07T22:40:17.064Z,100170.16
2023-09-07T22:42:19.399Z,100169.63
2023-09-07T22:44:21.781Z,100174.75
2023-09-07T22:46:24.280Z,100163.13
2023-09-07T22:48:26.619Z,100166.28
2023-09-07T22:50:29.309Z,100160.78
2023-09-07T22:52:31.638Z,100159.19
2023-09-07T22:54:34.048Z,100165.91
2023-09-07T22:56:36.470Z,100160.03
2023-09-07T22:58:41.416Z,100164.75
2023-09-07T23:00:44.849Z,100165.13
2023-09-07T23:02:47.277Z,100163.72
2023-09-07T23:04:49.783Z,100158.59
2023-09-07T23:06:52.286Z,100163.22
2023-09-07T23:08:54.945Z,100159.56
2023-09-07T23:10:57.458Z,100160.72
2023-09-07T23:12:59.934Z,100161.59
2023-09-07T23:15:02.613Z,100162.09
2023-09-07T23:17:05.069Z,100171.84
2023-09-07T23:19:07.541Z,100160.97
2023-09-07T23:21:10.112Z,100162.25
2023-09-07T23:23:12.485Z,100156.63
2023-09-07T23:25:14.944Z,100163.63
2023-09-07T23:27:17.879Z,100158.13
2023-09-07T23:29:20.285Z,100160.16